Flugplatz Nienburg-Holzbalge

Für EDXI sind keine METAR/TAF Berichte vorhanden.
Es werden die Flugwettermeldungen vom Flugplatz Wunstorf Airport in 33 km Entfernung angezeigt.

Bericht für ETNW

vom 25.09. um 19:20 UTC

Wind 6 kt aus 180°

Sichtweite 10 km oder mehr

gering bewölkt in 6000 ft

aufgebrochene Bewölkung in 12000 ft

Temperatur 12.0°C

Taupunkt 5.0°C

Luftfeuchtigkeit 62%

Luftdruck 996 hPa

ETNW 251920Z 18006KT 9999 FEW060 BKN120 12/05 Q0996 BLU

Prognose für ETNW

vom 25.09. um 16:00 UTC

Zwischen 17:00 UTC und 04:00 UTC

variable Windrichtung mit 3 kt

Sichtweite 10 km oder mehr

keine signifikanten Wettererscheinungen

aufgelockert bewölkt in 7000 ft

aufgebrochene Bewölkung in 18000 ft


Am 26.09. zwischen 04:00 und 06:00 UTC übergehend zu

Wind 5 kt aus 250°

Sichtweite 10 km oder mehr

keine signifikanten Wettererscheinungen

aufgelockert bewölkt in 5000 ft

aufgebrochene Bewölkung in 10000 ft


Am 26.09. zwischen 10:00 UTC und 17:00 UTC zeitweise

Wind 8 kt aus 280°

Sichtweite 4000 m

Regen

aufgelockert bewölkt in 1000 ft

aufgebrochene Bewölkung in 2000 ft

TAF ETNW 251600Z 2517/2617 VRB03KT 9999 NSW SCT070 BKN180 BECMG 2604/2606 25005KT 9999 NSW SCT050 BKN100 TEMPO 2610/2617 28008KT 4000 RA SCT010 BKN020 BY ETGL
Impressum